Time;durP1;ratioP1;P1;durP2;ratioP2;P2;SDS_P1;SDS_P2;PMS_P1;PMS_P2;Temp;Humidity;BMP_temperature;BMP_pressure;BME280_temperature;BME280_humidity;BME280_pressure;Samples;Min_cycle;Max_cycle;Signal;HPM_P1;HPM_P2
2023/12/07 00:01:14;;;;;;;48.28;27.38;;;;;;;8.01;100.00;104828.81;5068242;28;20023;-73
2023/12/07 00:03:39;;;;;;;48.40;26.02;;;;;;;8.12;100.00;104831.19;5066418;28;20052;-73
2023/12/07 00:06:05;;;;;;;51.83;26.58;;;;;;;8.10;100.00;104913.03;5067764;28;20050;-74
2023/12/07 00:08:30;;;;;;;51.90;26.70;;;;;;;7.40;100.00;104879.84;5067754;28;20048;-75
2023/12/07 00:10:56;;;;;;;53.08;27.35;;;;;;;7.78;100.00;105230.31;5068452;28;20387;-76
2023/12/07 00:13:21;;;;;;;55.80;27.70;;;;;;;8.28;100.00;105538.13;5062434;28;20029;-75
2023/12/07 00:15:47;;;;;;;57.65;27.65;;;;;;;7.92;100.00;105488.16;5071810;28;20033;-75
2023/12/07 00:18:13;;;;;;;48.75;26.92;;;;;;;7.95;100.00;105607.50;5071707;28;20032;-75
2023/12/07 00:20:38;;;;;;;56.17;26.77;;;;;;;8.07;100.00;105811.25;5072162;28;20037;-75
2023/12/07 00:23:04;;;;;;;57.00;27.52;;;;;;;7.55;100.00;105891.59;5060895;28;20028;-75
2023/12/07 00:25:29;;;;;;;65.25;28.23;;;;;;;8.09;100.00;106167.28;5071572;28;20086;-75
2023/12/07 00:27:55;;;;;;;54.40;26.52;;;;;;;7.61;100.00;106171.72;5071294;28;20036;-75
2023/12/07 00:30:20;;;;;;;56.63;27.55;;;;;;;7.54;100.00;106270.78;5071941;28;20055;-75
2023/12/07 00:32:46;;;;;;;58.08;27.17;;;;;;;8.04;100.00;106434.84;5064578;28;20089;-74
2023/12/07 00:35:12;;;;;;;54.63;27.27;;;;;;;7.97;100.00;106543.19;5065457;28;20093;-73
2023/12/07 00:37:38;;;;;;;55.75;27.35;;;;;;;7.54;100.00;106495.41;5072184;28;20020;-75
2023/12/07 00:40:04;;;;;;;54.92;27.15;;;;;;;7.77;100.00;106640.28;5071762;28;20035;-75
2023/12/07 00:42:30;;;;;;;56.85;27.05;;;;;;;7.91;100.00;106863.06;5065986;28;20032;-74
2023/12/07 00:44:56;;;;;;;60.22;27.77;;;;;;;8.05;100.00;107044.44;5071628;28;20506;-74
2023/12/07 00:47:21;;;;;;;57.53;26.70;;;;;;;7.51;100.00;106996.88;5059785;28;20040;-76
2023/12/07 00:49:47;;;;;;;58.25;27.30;;;;;;;8.12;100.00;107116.19;5063885;28;20052;-74
2023/12/07 00:52:13;;;;;;;60.25;28.52;;;;;;;8.10;100.00;107254.69;5070863;28;20034;-76
2023/12/07 00:54:39;;;;;;;58.80;27.23;;;;;;;8.22;100.00;107394.59;5071514;28;20029;-75
2023/12/07 00:57:05;;;;;;;60.42;26.98;;;;;;;8.11;100.00;107430.63;5071147;28;20024;-75
2023/12/07 00:59:33;;;;;;;62.45;28.38;;;;;;;8.18;100.00;107563.38;5071230;28;20558;-75
2023/12/07 01:02:02;;;;;;;60.13;28.40;;;;;;;8.28;100.00;107639.75;5071518;28;20111;-74
2023/12/07 01:04:29;;;;;;;61.97;29.02;;;;;;;8.20;100.00;107691.31;5070566;28;20035;-74
2023/12/07 01:06:54;;;;;;;62.58;28.70;;;;;;;7.74;100.00;107606.00;5070759;28;20067;-75
2023/12/07 01:09:20;;;;;;;55.13;26.77;;;;;;;7.92;100.00;107775.34;5061377;28;20055;-70
2023/12/07 01:11:45;;;;;;;61.20;28.73;;;;;;;7.95;100.00;107894.91;5070736;28;20111;-77
2023/12/07 01:14:11;;;;;;;60.53;28.67;;;;;;;8.25;100.00;107964.31;5060748;28;20037;-76
2023/12/07 01:16:37;;;;;;;57.30;27.83;;;;;;;8.22;100.00;108003.66;5061072;28;20490;-74
2023/12/07 01:19:02;;;;;;;57.35;27.77;;;;;;;8.16;100.00;108048.63;5071017;28;20041;-75
2023/12/07 01:21:28;;;;;;;55.80;27.95;;;;;;;8.18;100.00;108103.00;5070468;28;20067;-75
2023/12/07 01:23:53;;;;;;;57.85;27.48;;;;;;;8.35;100.00;108195.59;5070015;28;20040;-76
2023/12/07 01:26:19;;;;;;;58.28;28.88;;;;;;;8.25;100.00;108200.34;5061308;28;20047;-75
2023/12/07 01:28:44;;;;;;;54.22;27.60;;;;;;;8.26;100.00;108230.06;5069812;28;20028;-74
2023/12/07 01:31:10;;;;;;;51.58;26.38;;;;;;;8.37;100.00;108283.00;5069738;28;20072;-75
2023/12/07 01:33:35;;;;;;;52.78;26.77;;;;;;;8.32;100.00;108289.16;5062647;28;20040;-75
2023/12/07 01:36:01;;;;;;;55.28;27.00;;;;;;;8.37;100.00;108354.09;5070057;28;20036;-75
2023/12/07 01:38:26;;;;;;;52.78;26.42;;;;;;;8.45;100.00;108426.06;5070778;28;20029;-75
2023/12/07 01:40:52;;;;;;;50.63;25.73;;;;;;;8.39;100.00;108346.63;5070081;28;20466;-75
2023/12/07 01:43:20;;;;;;;53.75;25.77;;;;;;;8.23;100.00;108305.84;5070326;28;20121;-75
2023/12/07 01:45:46;;;;;;;50.28;25.85;;;;;;;8.18;100.00;108253.63;5069989;28;20025;-75
2023/12/07 01:48:13;;;;;;;51.90;26.83;;;;;;;8.28;100.00;108378.38;5068774;28;20150;-75
2023/12/07 01:50:39;;;;;;;50.42;25.67;;;;;;;7.68;100.00;108209.72;5070322;28;20491;-73
2023/12/07 01:53:05;;;;;;;47.10;25.25;;;;;;;7.58;100.00;108132.41;5069476;28;20489;-75
2023/12/07 01:55:32;;;;;;;49.33;26.25;;;;;;;7.89;100.00;108315.31;5069922;28;20028;-74
2023/12/07 01:57:58;;;;;;;46.67;25.45;;;;;;;7.34;100.00;108377.91;5069341;28;20028;-71
2023/12/07 02:00:26;;;;;;;48.83;25.13;;;;;;;8.20;100.00;108756.41;5069756;28;20035;-76
2023/12/07 02:02:51;;;;;;;46.63;26.25;;;;;;;7.84;100.00;108856.75;5070148;28;20265;-74
2023/12/07 02:05:17;;;;;;;48.67;24.80;;;;;;;8.23;100.00;109010.63;5060740;28;20024;-74
2023/12/07 02:07:43;;;;;;;45.00;23.90;;;;;;;8.12;100.00;108962.66;5069739;28;20024;-74
2023/12/07 02:10:13;;;;;;;45.72;24.20;;;;;;;7.81;100.00;108970.50;5068539;28;20036;-75
2023/12/07 02:12:39;;;;;;;49.13;24.95;;;;;;;7.69;100.00;108964.75;5069779;28;20043;-75
2023/12/07 02:15:06;;;;;;;44.78;23.80;;;;;;;8.15;100.00;109090.88;5067460;28;20123;-74
2023/12/07 02:18:08;;;;;;;43.17;23.35;;;;;;;7.84;100.00;109088.50;5057279;28;20036;-73
2023/12/07 02:20:45;;;;;;;;;;;;;;;8.28;100.00;109216.19;5068189;28;20418;-73
2023/12/07 02:23:14;;;;;;;43.28;23.00;;;;;;;7.82;100.00;109183.81;5067870;28;20383;-70
2023/12/07 02:26:20;;;;;;;40.50;22.23;;;;;;;8.22;100.00;109258.50;5055320;28;20024;-74
2023/12/07 02:28:46;;;;;;;46.20;23.73;;;;;;;8.03;100.00;109187.34;5068094;28;20024;-74
2023/12/07 02:31:12;;;;;;;42.72;22.63;;;;;;;8.07;100.00;109256.50;5068043;28;20039;-74
2023/12/07 02:50:25;;;;;;;45.05;23.00;;;;;;;8.05;100.00;109735.13;5068536;28;20087;-75
2023/12/07 02:52:51;;;;;;;37.63;21.70;;;;;;;8.08;100.00;109745.69;5068901;28;20044;-75
2023/12/07 02:55:17;;;;;;;39.72;22.00;;;;;;;7.77;100.00;109621.22;5068335;28;20037;-74
2023/12/07 02:57:42;;;;;;;44.22;23.02;;;;;;;7.82;100.00;109578.72;5069319;28;20505;-75
2023/12/07 03:00:08;;;;;;;40.08;22.20;;;;;;;7.89;100.00;109696.53;5068498;28;20050;-74
2023/12/07 03:02:39;;;;;;;41.92;21.83;;;;;;;7.45;100.00;109706.16;5067837;28;20026;-70
2023/12/07 03:05:05;;;;;;;38.85;22.73;;;;;;;7.86;100.00;109824.59;5068611;28;20039;-73
2023/12/07 03:07:31;;;;;;;38.25;22.30;;;;;;;7.63;100.00;109840.69;5068924;28;20091;-75
2023/12/07 03:09:57;;;;;;;37.22;21.85;;;;;;;7.80;100.00;109793.28;5069016;28;20062;-74
2023/12/07 03:12:23;;;;;;;38.38;22.13;;;;;;;7.37;100.00;109783.69;5068622;28;20029;-75
2023/12/07 03:14:49;;;;;;;38.22;21.23;;;;;;;7.83;100.00;109973.88;5068529;28;20027;-75
2023/12/07 03:17:14;;;;;;;42.97;26.70;;;;;;;8.02;100.00;110119.63;5059350;28;20162;-74
2023/12/07 03:19:40;;;;;;;41.30;22.90;;;;;;;7.28;100.00;109834.69;5068164;28;20063;-75
2023/12/07 03:22:07;;;;;;;40.28;23.10;;;;;;;7.43;100.00;109911.38;5055427;28;20115;-76
2023/12/07 03:24:34;;;;;;;40.30;22.63;;;;;;;7.72;100.00;110086.53;5067574;28;20050;-75
2023/12/07 03:26:59;;;;;;;45.35;25.60;;;;;;;7.89;100.00;110319.94;5068102;28;20032;-73
2023/12/07 03:29:25;;;;;;;44.55;25.27;;;;;;;6.98;100.00;110028.81;5067070;28;20032;-75
2023/12/07 03:31:50;;;;;;;43.90;25.80;;;;;;;7.72;100.00;110326.66;5068335;28;20115;-75
2023/12/07 03:34:16;;;;;;;41.95;24.65;;;;;;;7.92;100.00;110613.97;5055859;28;20036;-74
2023/12/07 03:36:50;;;;;;;43.25;26.08;;;;;;;7.73;100.00;110786.22;5067339;28;20032;-75
2023/12/07 03:39:22;;;;;;;41.47;24.13;;;;;;;7.24;100.00;110550.88;5066703;28;20059;-74
2023/12/07 03:41:48;;;;;;;41.67;24.95;;;;;;;7.78;100.00;110721.88;5054881;28;20059;-75
2023/12/07 03:44:13;;;;;;;40.00;24.23;;;;;;;7.24;100.00;110652.31;5067361;28;20032;-73
2023/12/07 03:46:39;;;;;;;43.20;25.42;;;;;;;7.73;100.00;110844.59;5067073;28;20040;-75
2023/12/07 03:49:05;;;;;;;45.83;26.02;;;;;;;7.49;100.00;110781.38;5050752;28;20555;-75
2023/12/07 03:51:32;;;;;;;45.35;26.42;;;;;;;7.58;100.00;110820.94;5046519;28;20037;-75
2023/12/07 03:53:57;;;;;;;39.88;24.55;;;;;;;7.85;100.00;111015.69;5048282;28;20036;-76
2023/12/07 03:56:24;;;;;;;42.53;25.70;;;;;;;6.84;100.00;110776.81;5048369;28;20166;-76
2023/12/07 03:58:50;;;;;;;47.97;28.13;;;;;;;7.60;100.00;110934.69;5048579;28;20036;-76
2023/12/07 04:01:15;;;;;;;49.40;29.65;;;;;;;7.41;100.00;111013.53;5048666;28;20037;-75
2023/12/07 04:03:41;;;;;;;45.92;28.20;;;;;;;7.60;100.00;111027.63;5048079;28;20415;-76
2023/12/07 04:06:07;;;;;;;61.75;37.70;;;;;;;7.75;100.00;111151.94;5047637;28;20025;-76
2023/12/07 04:08:33;;;;;;;46.70;28.15;;;;;;;7.46;100.00;111098.97;5047936;28;20041;-76
2023/12/07 04:10:58;;;;;;;47.47;27.73;;;;;;;7.28;100.00;111050.28;5046969;28;20041;-76
2023/12/07 04:13:24;;;;;;;48.58;27.27;;;;;;;7.75;100.00;111240.78;5047898;28;20475;-76
2023/12/07 04:15:49;;;;;;;45.92;26.65;;;;;;;7.84;100.00;111305.81;5047849;28;20025;-76
2023/12/07 04:18:15;;;;;;;48.58;27.77;;;;;;;7.89;100.00;111358.25;5046025;28;20052;-76
2023/12/07 04:20:41;;;;;;;46.30;27.63;;;;;;;7.36;100.00;111218.94;5045911;28;20045;-74
2023/12/07 04:23:07;;;;;;;46.05;27.60;;;;;;;7.47;100.00;111196.28;5045350;28;20040;-74
2023/12/07 04:25:32;;;;;;;52.97;27.70;;;;;;;7.37;100.00;111083.84;5047009;28;20127;-73
2023/12/07 04:27:59;;;;;;;37.50;21.80;;;;;;;8.65;100.00;111535.56;5047391;28;20527;-74
2023/12/07 04:30:24;;;;;;;52.10;28.42;;;;;;;7.69;100.00;111065.59;5045655;28;20036;-71
2023/12/07 04:32:50;;;;;;;50.85;31.38;;;;;;;7.42;100.00;111053.47;5047477;28;20033;-73
2023/12/07 04:35:15;;;;;;;46.75;28.05;;;;;;;7.82;100.00;111125.28;5047487;28;20032;-75
2023/12/07 04:37:41;;;;;;;49.20;30.27;;;;;;;6.96;100.00;110818.41;5042310;28;20036;-73
2023/12/07 04:40:07;;;;;;;51.13;30.08;;;;;;;7.04;100.00;110686.22;5044447;28;20025;-74
2023/12/07 04:42:32;;;;;;;51.13;28.92;;;;;;;7.19;100.00;110647.19;5043907;28;20029;-74
2023/12/07 04:44:58;;;;;;;51.03;29.65;;;;;;;6.69;100.00;110558.06;5043747;28;20545;-76
2023/12/07 04:47:23;;;;;;;47.90;29.95;;;;;;;7.46;100.00;110740.31;5044705;28;22575;-72
2023/12/07 04:49:49;;;;;;;51.30;31.65;;;;;;;7.55;100.00;110793.44;5060057;28;20044;-71
2023/12/07 04:52:15;;;;;;;48.50;30.60;;;;;;;7.29;100.00;110792.53;5064606;28;20032;-72
2023/12/07 04:54:40;;;;;;;45.78;29.80;;;;;;;7.15;100.00;110762.38;5064163;28;20024;-72
2023/12/07 04:57:06;;;;;;;34.55;22.10;;;;;;;7.30;100.00;110715.72;5065788;28;20073;-71
2023/12/07 04:59:32;;;;;;;36.92;25.48;;;;;;;7.44;100.00;110721.41;5058124;28;20032;-72
2023/12/07 05:01:57;;;;;;;41.15;27.35;;;;;;;7.10;100.00;110660.94;5066647;28;20188;-79
2023/12/07 05:04:22;;;;;;;41.60;26.95;;;;;;;6.96;100.00;110463.56;5066582;28;20047;-76
2023/12/07 05:06:48;;;;;;;48.42;29.63;;;;;;;6.96;100.00;110418.88;5054695;28;20071;-75
2023/12/07 05:09:13;;;;;;;79.55;56.35;;;;;;;7.23;100.00;110478.00;5068527;28;20070;-75
2023/12/07 05:11:39;;;;;;;62.30;40.58;;;;;;;6.98;100.00;110406.44;5067089;28;20028;-77
2023/12/07 05:14:05;;;;;;;60.80;41.35;;;;;;;6.71;100.00;110333.75;5069069;28;20145;-76
2023/12/07 05:16:30;;;;;;;59.97;38.13;;;;;;;7.42;100.00;110584.19;5057784;28;20086;-77
2023/12/07 05:18:56;;;;;;;61.65;37.75;;;;;;;6.87;100.00;110391.19;5068328;28;20032;-76
2023/12/07 05:21:21;;;;;;;67.85;42.33;;;;;;;7.28;100.00;110410.25;5068218;28;20495;-76
2023/12/07 05:23:47;;;;;;;57.53;36.50;;;;;;;6.92;100.00;110325.31;5068337;28;20060;-77
2023/12/07 05:26:12;;;;;;;42.33;28.95;;;;;;;7.31;100.00;110380.31;5061178;28;21585;-75
2023/12/07 05:28:38;;;;;;;39.13;25.35;;;;;;;7.25;100.00;110324.50;5067663;28;21508;-73
2023/12/07 05:31:03;;;;;;;31.08;21.55;;;;;;;7.06;100.00;110192.16;5065595;28;20036;-75
2023/12/07 05:33:29;;;;;;;26.90;17.38;;;;;;;7.13;100.00;110026.00;5067087;28;20025;-74
2023/12/07 05:35:54;;;;;;;21.65;14.30;;;;;;;7.35;100.00;110018.38;5053633;28;20055;-72
2023/12/07 05:38:20;;;;;;;21.30;14.52;;;;;;;6.88;100.00;109765.56;5067796;28;20037;-78
2023/12/07 05:40:45;;;;;;;24.15;16.20;;;;;;;7.40;100.00;109745.19;5068507;28;20030;-78
2023/12/07 05:43:11;;;;;;;46.17;31.42;;;;;;;6.60;100.00;109419.41;5064798;28;20426;-76
2023/12/07 05:45:37;;;;;;;43.38;28.85;;;;;;;8.58;100.00;110177.09;5070550;28;20039;-77
2023/12/07 05:48:02;;;;;;;78.05;48.97;;;;;;;7.31;100.00;109462.47;5063451;28;20031;-78
2023/12/07 05:50:28;;;;;;;118.57;73.82;;;;;;;7.09;100.00;109245.66;5069648;28;20054;-76
2023/12/07 05:52:55;;;;;;;66.70;43.75;;;;;;;7.39;100.00;109183.88;5070566;28;20055;-77
2023/12/07 05:55:20;;;;;;;198.25;141.27;;;;;;;6.86;100.00;108918.28;5062604;28;20035;-78
2023/12/07 05:57:46;;;;;;;117.65;82.60;;;;;;;7.32;100.00;108883.75;5070907;28;20028;-76
2023/12/07 06:00:12;;;;;;;79.88;52.80;;;;;;;6.92;100.00;108784.84;5059700;28;20036;-81
2023/12/07 06:02:38;;;;;;;71.90;54.58;;;;;;;7.00;100.00;108760.50;5071061;28;20056;-84
2023/12/07 06:05:04;;;;;;;47.03;32.45;;;;;;;7.23;100.00;108713.66;5070479;28;20115;-83
2023/12/07 06:07:30;;;;;;;40.20;27.63;;;;;;;7.40;100.00;108705.66;5070272;28;20060;-83
2023/12/07 06:09:56;;;;;;;54.03;36.75;;;;;;;7.33;100.00;108601.69;5070210;28;20121;-78
2023/12/07 06:12:22;;;;;;;38.80;29.67;;;;;;;7.37;100.00;108536.34;5070640;28;20032;-79
2023/12/07 06:14:48;;;;;;;15.55;12.30;;;;;;;6.82;100.00;108315.84;5070398;28;20034;-79
2023/12/07 06:17:14;;;;;;;10.20;7.40;;;;;;;6.64;100.00;108159.16;5069435;28;20036;-76
2023/12/07 06:19:39;;;;;;;7.82;4.93;;;;;;;6.99;100.00;108052.81;5069272;28;20086;-76
2023/12/07 06:22:05;;;;;;;6.13;4.47;;;;;;;7.00;100.00;107863.78;5069984;28;20031;-79
2023/12/07 06:24:32;;;;;;;6.53;4.50;;;;;;;7.43;100.00;107704.78;5070870;28;20054;-77
2023/12/07 06:26:58;;;;;;;4.13;3.28;;;;;;;7.33;100.00;107454.56;5061657;28;20453;-74
2023/12/07 06:29:23;;;;;;;4.47;3.10;;;;;;;7.64;100.00;107337.00;5069942;28;20028;-78
2023/12/07 06:31:49;;;;;;;3.40;2.60;;;;;;;7.24;100.00;107106.53;5070717;28;20028;-78
2023/12/07 06:34:14;;;;;;;3.05;2.30;;;;;;;7.48;100.00;106878.38;5069774;28;20028;-82
2023/12/07 06:36:40;;;;;;;5.28;3.90;;;;;;;7.57;100.00;106733.88;5061784;28;20111;-79
2023/12/07 06:39:05;;;;;;;6.18;4.40;;;;;;;7.66;100.00;106575.97;5069281;28;20550;-79
2023/12/07 06:41:31;;;;;;;5.60;4.10;;;;;;;7.74;100.00;106420.38;5068743;28;20036;-77
2023/12/07 06:43:56;;;;;;;6.38;3.35;;;;;;;7.73;100.00;106182.88;5070056;28;20028;-78
2023/12/07 06:46:22;;;;;;;3.83;2.75;;;;;;;7.73;100.00;105985.19;5070442;28;20119;-77
2023/12/07 06:48:47;;;;;;;3.63;3.17;;;;;;;7.59;100.00;105784.66;5069234;28;20043;-78
2023/12/07 06:51:14;;;;;;;5.20;3.67;;;;;;;7.84;100.00;105641.31;5069815;28;20044;-81
2023/12/07 06:53:41;;;;;;;3.47;2.60;;;;;;;7.39;100.00;105336.47;5069527;28;20032;-83
2023/12/07 06:56:07;;;;;;;4.38;2.95;;;;;;;8.07;100.00;105223.03;5070078;28;20071;-84
2023/12/07 06:58:33;;;;;;;4.20;3.80;;;;;;;7.87;100.00;104914.13;5069806;28;20550;-81
2023/12/07 07:00:59;;;;;;;3.40;3.00;;;;;;;8.02;100.00;104802.69;5069777;28;20107;-77
2023/12/07 07:03:24;;;;;;;3.72;2.80;;;;;;;7.99;100.00;104597.19;5069320;28;20040;-78
2023/12/07 07:05:50;;;;;;;3.72;2.85;;;;;;;7.95;100.00;104373.13;5070053;28;20021;-76
2023/12/07 07:08:16;;;;;;;3.75;3.28;;;;;;;7.72;100.00;104211.44;5069219;28;20028;-77
2023/12/07 07:10:42;;;;;;;3.70;2.88;;;;;;;7.53;100.00;104007.00;5069669;28;20043;-78
2023/12/07 07:13:07;;;;;;;3.40;2.92;;;;;;;8.12;100.00;103933.00;5069391;28;20119;-77
2023/12/07 07:15:33;;;;;;;4.22;3.08;;;;;;;8.13;100.00;103768.31;5069678;28;20498;-76
2023/12/07 07:17:59;;;;;;;3.55;3.03;;;;;;;8.12;100.00;103609.44;5058645;28;20024;-75
2023/12/07 07:20:25;;;;;;;4.05;3.10;;;;;;;7.63;100.00;103371.03;5061266;28;20410;-75
2023/12/07 07:22:51;;;;;;;4.25;3.63;;;;;;;7.89;100.00;103231.06;5068610;28;20107;-74
2023/12/07 07:25:18;;;;;;;5.85;4.43;;;;;;;7.92;100.00;103068.19;5069395;28;20036;-75
2023/12/07 07:27:45;;;;;;;6.85;4.57;;;;;;;7.88;100.00;102910.16;5068980;28;20059;-74
2023/12/07 07:30:12;;;;;;;6.95;4.60;;;;;;;8.41;100.00;102812.03;5057619;28;20564;-76
2023/12/07 07:32:38;;;;;;;6.60;4.68;;;;;;;8.52;100.00;102762.47;5069180;28;20029;-76
2023/12/07 07:35:04;;;;;;;9.18;5.25;;;;;;;8.16;100.00;102549.50;5069690;28;20508;-75
2023/12/07 07:37:29;;;;;;;7.50;5.43;;;;;;;8.63;100.00;102536.25;5059764;28;20028;-76
2023/12/07 07:39:56;;;;;;;6.40;5.10;;;;;;;8.46;100.00;102326.28;5061779;28;20115;-77
2023/12/07 07:42:21;;;;;;;6.43;5.03;;;;;;;8.11;100.00;102130.53;5057799;28;20028;-76
2023/12/07 07:44:47;;;;;;;6.55;4.40;;;;;;;7.99;100.00;102020.56;5068636;28;20398;-72
2023/12/07 07:47:12;;;;;;;4.90;4.10;;;;;;;8.05;100.00;101925.25;5068418;28;20123;-76
2023/12/07 07:49:38;;;;;;;3.20;2.80;;;;;;;8.47;100.00;101871.78;5068563;28;20052;-76
2023/12/07 07:52:05;;;;;;;4.43;3.20;;;;;;;8.58;100.00;101789.94;5061257;28;20042;-75
2023/12/07 07:54:30;;;;;;;3.05;2.33;;;;;;;7.74;100.00;101561.13;5068389;28;20055;-76
2023/12/07 07:56:56;;;;;;;3.00;2.20;;;;;;;8.57;100.00;101597.28;5068630;28;20025;-75
2023/12/07 07:59:22;;;;;;;2.92;1.92;;;;;;;8.66;100.00;101513.66;5068554;28;20032;-76
2023/12/07 08:01:47;;;;;;;3.40;1.90;;;;;;;8.82;100.00;101416.53;5069001;28;20094;-79
2023/12/07 08:04:13;;;;;;;6.22;4.07;;;;;;;8.37;100.00;101277.03;5055875;28;20810;-75
2023/12/07 08:06:38;;;;;;;3.47;2.60;;;;;;;8.34;100.00;101201.84;5058089;28;20017;-76
2023/12/07 08:09:04;;;;;;;3.15;2.15;;;;;;;8.73;100.00;101160.47;5068329;28;20044;-76
2023/12/07 08:11:30;;;;;;;3.67;2.17;;;;;;;8.38;100.00;101017.75;5067840;28;20107;-76
2023/12/07 08:13:55;;;;;;;4.63;2.50;;;;;;;8.84;100.00;101003.22;5059146;28;20112;-77
2023/12/07 08:16:22;;;;;;;4.45;2.90;;;;;;;8.87;100.00;100948.31;5068057;28;20028;-73
2023/12/07 08:18:47;;;;;;;4.57;3.33;;;;;;;8.55;100.00;100803.16;5068138;28;20028;-77
2023/12/07 08:21:22;;;;;;;4.55;3.70;;;;;;;8.91;100.00;100757.25;5068967;28;20102;-76
2023/12/07 08:23:48;;;;;;;4.30;3.38;;;;;;;8.58;100.00;100656.13;5067860;28;20475;-74
2023/12/07 08:26:14;;;;;;;3.92;2.78;;;;;;;9.19;100.00;100658.91;5068196;28;20041;-76
2023/12/07 08:28:41;;;;;;;4.72;2.88;;;;;;;8.86;100.00;100575.59;5068545;28;20052;-75
2023/12/07 08:31:06;;;;;;;4.05;3.00;;;;;;;9.46;100.00;100607.81;5068826;28;20029;-75
2023/12/07 08:33:34;;;;;;;3.22;2.58;;;;;;;9.78;100.00;100595.53;5072092;28;20043;-76
2023/12/07 08:36:00;;;;;;;3.30;2.35;;;;;;;9.21;100.00;100472.84;5070521;28;20541;-76
2023/12/07 08:38:25;;;;;;;3.75;2.10;;;;;;;9.70;100.00;100516.09;5071643;28;20063;-75
2023/12/07 08:40:51;;;;;;;2.75;1.92;;;;;;;9.70;100.00;100465.31;5063594;28;20056;-76
2023/12/07 08:43:20;;;;;;;3.67;2.50;;;;;;;10.06;100.00;100499.41;5071538;28;20049;-74
2023/12/07 08:45:46;;;;;;;4.10;2.63;;;;;;;9.29;100.00;100323.06;5071436;28;20020;-75
2023/12/07 08:48:12;;;;;;;3.95;2.55;;;;;;;10.15;100.00;100400.19;5060791;28;20157;-79
2023/12/07 08:50:37;;;;;;;4.97;3.42;;;;;;;10.21;100.00;100400.91;5070917;28;20123;-74
2023/12/07 08:53:03;;;;;;;5.25;3.55;;;;;;;10.07;100.00;100313.94;5071097;28;20486;-76
2023/12/07 08:55:29;;;;;;;7.43;4.18;;;;;;;10.08;100.00;100279.22;5062268;28;20029;-78
2023/12/07 08:57:55;;;;;;;6.85;4.28;;;;;;;10.20;100.00;100267.09;5072070;28;20162;-78
2023/12/07 09:00:23;;;;;;;8.52;4.60;;;;;;;10.06;100.00;100177.63;5061854;28;20477;-78
2023/12/07 09:02:49;;;;;;;5.40;3.83;;;;;;;10.39;100.00;100222.66;5071793;28;20032;-79
2023/12/07 09:05:15;;;;;;;5.80;3.53;;;;;;;9.99;100.00;100099.09;5071462;28;20037;-77
2023/12/07 09:07:41;;;;;;;5.40;3.75;;;;;;;10.24;100.00;100097.69;5058962;28;20048;-76
2023/12/07 09:10:08;;;;;;;4.82;3.47;;;;;;;10.31;100.00;100089.00;5059050;28;20036;-78
2023/12/07 09:12:35;;;;;;;2.72;2.00;;;;;;;10.30;100.00;100074.66;5070335;28;20820;-73
2023/12/07 09:15:02;;;;;;;2.53;2.10;;;;;;;10.29;100.00;100042.50;5060161;28;20029;-76
2023/12/07 09:17:28;;;;;;;2.55;2.08;;;;;;;9.81;100.00;99953.09;5063647;28;20078;-75
2023/12/07 09:19:53;;;;;;;2.97;2.08;;;;;;;10.21;100.00;99943.63;5070914;28;20490;-78
2023/12/07 09:22:20;;;;;;;3.35;2.25;;;;;;;9.95;100.00;99892.66;5070836;28;20033;-75
2023/12/07 09:24:46;;;;;;;2.90;2.40;;;;;;;10.02;100.00;99885.72;5070172;28;20025;-75
2023/12/07 09:27:13;;;;;;;3.97;3.13;;;;;;;9.91;100.00;99845.34;5065867;28;20086;-76
2023/12/07 09:29:38;;;;;;;2.60;2.05;;;;;;;9.99;100.00;99847.69;5070620;28;20062;-75
2023/12/07 09:32:05;;;;;;;3.72;2.40;;;;;;;9.72;100.00;99797.69;5071167;28;20165;-76
2023/12/07 09:34:30;;;;;;;13.20;11.60;;;;;;;9.91;100.00;99814.88;5070174;28;20516;-74
2023/12/07 09:37:07;;;;;;;4.55;2.65;;;;;;;10.29;100.00;99845.16;5070632;28;20167;-74
2023/12/07 09:39:32;;;;;;;2.50;1.63;;;;;;;10.32;100.00;99803.56;5069868;28;20111;-76
2023/12/07 09:41:58;;;;;;;2.72;2.20;;;;;;;9.78;100.00;99742.50;5070464;28;20046;-76
2023/12/07 09:44:23;;;;;;;3.88;2.00;;;;;;;9.83;100.00;99740.66;5063173;28;20081;-75
2023/12/07 09:46:49;;;;;;;3.15;2.22;;;;;;;9.76;100.00;99728.19;5070727;28;20032;-72
2023/12/07 09:49:15;;;;;;;2.88;2.20;;;;;;;9.09;100.00;99625.25;5056887;28;20049;-78
2023/12/07 09:51:42;;;;;;;3.20;2.20;;;;;;;9.85;100.00;99736.34;5071221;28;20115;-76
2023/12/07 09:54:08;;;;;;;3.80;2.80;;;;;;;9.72;100.00;99691.06;5070041;28;20498;-76
2023/12/07 09:56:33;;;;;;;4.10;2.67;;;;;;;9.34;100.00;99636.34;5070651;28;20032;-75
2023/12/07 09:58:59;;;;;;;4.35;2.50;;;;;;;9.58;100.00;99616.19;5058916;28;20032;-75
2023/12/07 10:01:31;;;;;;;3.00;2.10;;;;;;;9.85;100.00;99677.97;5070698;28;20487;-78
2023/12/07 10:04:23;;;;;;;3.47;2.83;;;;;;;9.80;100.00;99643.44;5059877;28;20514;-75
2023/12/07 10:06:50;;;;;;;7.20;4.72;;;;;;;9.61;100.00;99564.50;5058025;28;20032;-75
2023/12/07 10:09:16;;;;;;;13.27;8.18;;;;;;;9.94;100.00;99632.00;5069771;28;20044;-75
2023/12/07 10:11:43;;;;;;;7.93;5.43;;;;;;;9.35;100.00;99491.72;5059146;28;20036;-72
2023/12/07 10:14:09;;;;;;;4.65;3.70;;;;;;;10.04;100.00;99582.56;5070043;28;20024;-76
2023/12/07 10:16:35;;;;;;;3.75;2.90;;;;;;;9.90;100.00;99551.72;5069875;28;20519;-73
2023/12/07 10:19:21;;;;;;;3.38;3.08;;;;;;;9.65;100.00;99469.63;5061880;28;20121;-76
2023/12/07 10:21:51;;;;;;;4.57;3.60;;;;;;;10.04;100.00;99536.84;5062263;28;20036;-77
2023/12/07 10:24:21;;;;;;;6.60;3.83;;;;;;;10.00;100.00;99487.06;5069001;28;20101;-76
2023/12/07 10:26:48;;;;;;;7.03;5.40;;;;;;;9.86;100.00;99486.72;5069374;28;20107;-76
2023/12/07 10:29:16;;;;;;;6.95;5.70;;;;;;;10.10;100.00;99483.34;5069453;28;20050;-77
2023/12/07 10:31:43;;;;;;;14.68;10.75;;;;;;;9.51;100.00;99378.75;5061189;28;20055;-75
2023/12/07 10:34:09;;;;;;;7.80;5.50;;;;;;;10.10;100.00;99463.03;5069614;28;20043;-74
2023/12/07 10:36:35;;;;;;;9.88;6.55;;;;;;;9.84;100.00;99364.09;5068645;28;20052;-74
2023/12/07 10:39:00;;;;;;;12.50;6.85;;;;;;;9.51;100.00;99304.31;5068906;28;20033;-74
2023/12/07 10:41:26;;;;;;;10.52;7.00;;;;;;;10.21;100.00;99400.00;5069005;28;20158;-72
2023/12/07 10:44:03;;;;;;;6.60;5.32;;;;;;;9.84;100.00;99399.63;5067686;28;20032;-79
2023/12/07 10:46:32;;;;;;;4.22;3.60;;;;;;;9.83;100.00;99316.72;5058530;28;20068;-76
2023/12/07 10:49:05;;;;;;;5.95;4.43;;;;;;;10.03;100.00;99344.78;5062377;28;20499;-75
2023/12/07 10:52:11;;;;;;;4.78;3.55;;;;;;;10.27;100.00;99336.28;5068661;28;20029;-76
2023/12/07 10:55:01;;;;;;;5.68;4.20;;;;;;;10.31;100.00;99316.66;4998585;28;20037;-75
2023/12/07 10:57:31;;;;;;;5.43;2.67;;;;;;;10.19;100.00;99330.66;5069460;28;20032;-77
2023/12/07 10:59:59;;;;;;;6.03;4.40;;;;;;;9.73;100.00;99254.47;5063486;28;20025;-73
2023/12/07 11:02:26;;;;;;;7.32;4.60;;;;;;;9.80;100.00;99250.00;5068136;28;20434;-76
2023/12/07 11:04:55;;;;;;;6.53;4.78;;;;;;;9.85;100.00;99251.50;5068548;28;20024;-76
2023/12/07 11:07:24;;;;;;;4.85;3.72;;;;;;;9.65;100.00;99194.75;5061852;28;20044;-77
2023/12/07 11:10:02;;;;;;;4.10;2.50;;;;;;;10.23;100.00;99256.00;5067712;28;20040;-76
2023/12/07 11:12:35;;;;;;;6.20;3.92;;;;;;;9.73;100.00;99230.81;5068432;28;20029;-75
2023/12/07 11:15:02;;;;;;;6.18;3.00;;;;;;;10.14;100.00;99291.09;5068023;28;20040;-75
2023/12/07 11:17:27;;;;;;;5.00;3.17;;;;;;;9.99;100.00;99250.97;5068058;28;20035;-79
2023/12/07 11:19:54;;;;;;;5.22;3.58;;;;;;;10.42;100.00;99333.16;5068681;28;20032;-77
2023/12/07 11:22:23;;;;;;;5.85;3.55;;;;;;;10.19;100.00;99291.72;5068428;28;20108;-76
2023/12/07 11:24:53;;;;;;;6.05;3.30;;;;;;;9.56;100.00;99178.16;5068655;28;20086;-75
2023/12/07 11:27:19;;;;;;;5.15;3.47;;;;;;;10.28;100.00;99292.22;5062172;28;20525;-80
2023/12/07 11:29:48;;;;;;;6.03;3.53;;;;;;;9.97;100.00;99240.88;5067501;28;20037;-76
2023/12/07 11:32:14;;;;;;;6.57;4.70;;;;;;;10.38;100.00;99293.50;5069312;28;20037;-78